createdAt,value
2018-04-29T00:00:30.887Z,7.60
2018-04-29T00:02:57.237Z,8.00
2018-04-29T00:05:23.586Z,7.87
2018-04-29T00:07:49.945Z,8.20
2018-04-29T00:10:16.320Z,7.73
2018-04-29T00:12:42.710Z,8.50
2018-04-29T00:15:09.970Z,7.57
2018-04-29T00:17:36.403Z,7.80
2018-04-29T00:20:02.773Z,7.70
2018-04-29T00:25:10.229Z,8.50
2018-04-29T00:27:37.321Z,7.90
2018-04-29T00:30:03.650Z,7.80
2018-04-29T00:32:30.789Z,8.13
2018-04-29T00:34:59.937Z,7.83
2018-04-29T00:37:26.303Z,7.50
2018-04-29T00:39:52.725Z,7.73
2018-04-29T00:42:19.842Z,7.23
2018-04-29T00:44:46.222Z,7.37
2018-04-29T00:47:12.561Z,6.97
2018-04-29T00:49:38.896Z,6.70
2018-04-29T00:52:06.228Z,6.23
2018-04-29T00:54:32.586Z,7.30
2018-04-29T00:56:58.960Z,7.40
2018-04-29T00:59:26.068Z,6.53
2018-04-29T01:01:52.418Z,7.03
2018-04-29T01:04:18.861Z,6.50
2018-04-29T01:06:46.700Z,7.23
2018-04-29T01:09:14.036Z,7.57
2018-04-29T01:11:40.401Z,7.17
2018-04-29T01:14:06.769Z,6.90
2018-04-29T01:16:33.103Z,7.10
2018-04-29T01:18:59.438Z,7.27
2018-04-29T01:21:26.513Z,7.37
2018-04-29T01:23:52.885Z,7.37
2018-04-29T01:26:19.202Z,7.40
2018-04-29T01:28:45.553Z,7.33
2018-04-29T01:31:12.014Z,7.00
2018-04-29T01:33:38.338Z,7.53
2018-04-29T01:36:05.570Z,7.33
2018-04-29T01:38:31.914Z,7.07
2018-04-29T01:40:58.270Z,6.83
2018-04-29T01:43:24.642Z,7.40
2018-04-29T01:45:51.144Z,7.07
2018-04-29T01:48:17.548Z,7.57
2018-04-29T01:50:44.869Z,7.40
2018-04-29T01:53:11.218Z,7.70
2018-04-29T01:55:38.485Z,7.80
2018-04-29T01:58:05.602Z,6.90
2018-04-29T02:00:31.978Z,7.47
2018-04-29T02:02:58.301Z,7.17
2018-04-29T02:05:25.530Z,7.37
2018-04-29T02:07:51.904Z,7.50
2018-04-29T02:10:18.270Z,7.50
2018-04-29T02:12:44.649Z,7.47
2018-04-29T02:15:11.616Z,7.70
2018-04-29T02:17:37.949Z,7.27
2018-04-29T02:20:04.342Z,6.87
2018-04-29T02:22:31.393Z,7.30
2018-04-29T02:24:58.734Z,7.10
2018-04-29T02:27:25.112Z,7.37
2018-04-29T02:29:51.492Z,7.53
2018-04-29T02:32:17.859Z,6.97
2018-04-29T02:34:44.278Z,6.70
2018-04-29T02:37:10.611Z,7.03
2018-04-29T02:39:37.698Z,7.03
2018-04-29T02:42:04.113Z,7.10
2018-04-29T02:44:30.492Z,6.93
2018-04-29T02:46:56.894Z,7.13
2018-04-29T02:49:23.247Z,6.90
2018-04-29T02:51:49.590Z,6.70
2018-04-29T02:54:16.010Z,6.70
2018-04-29T02:56:42.346Z,6.70
2018-04-29T02:59:08.765Z,6.60
2018-04-29T03:01:35.123Z,6.83
2018-04-29T03:04:01.521Z,7.17
2018-04-29T03:06:27.885Z,6.73
2018-04-29T03:08:54.221Z,7.03
2018-04-29T03:11:20.539Z,6.73
2018-04-29T03:13:46.969Z,7.33
2018-04-29T03:16:13.428Z,7.87
2018-04-29T03:18:39.796Z,7.77
2018-04-29T03:21:06.182Z,7.03
2018-04-29T03:23:32.562Z,6.33
2018-04-29T03:25:59.070Z,7.40
2018-04-29T03:28:26.155Z,6.93
2018-04-29T03:30:52.521Z,6.93
2018-04-29T03:33:18.882Z,7.20
2018-04-29T03:35:46.212Z,7.07
2018-04-29T03:38:12.540Z,7.20
2018-04-29T03:40:38.894Z,7.73
2018-04-29T03:43:05.230Z,7.20
2018-04-29T03:45:31.674Z,6.63
2018-04-29T03:47:58.098Z,6.67
2018-04-29T03:50:24.430Z,7.47
2018-04-29T03:52:50.852Z,6.63
2018-04-29T03:55:18.890Z,6.77
2018-04-29T03:57:57.444Z,6.73
2018-04-29T04:00:40.637Z,6.90
2018-04-29T04:03:19.226Z,7.20
2018-04-29T04:05:45.749Z,6.37
2018-04-29T04:08:12.094Z,6.37
2018-04-29T04:10:38.466Z,6.90
2018-04-29T04:13:05.535Z,6.70
2018-04-29T04:15:32.785Z,6.60
2018-04-29T04:17:59.159Z,6.80
2018-04-29T04:20:25.489Z,6.93
2018-04-29T04:22:51.851Z,7.33
2018-04-29T04:25:18.362Z,5.97
2018-04-29T04:27:44.810Z,6.20
2018-04-29T04:30:11.186Z,6.87
2018-04-29T04:32:37.567Z,6.47
2018-04-29T04:35:04.165Z,6.20
2018-04-29T04:37:30.540Z,6.60
2018-04-29T04:39:56.902Z,7.10
2018-04-29T04:42:24.018Z,6.50
2018-04-29T04:44:50.605Z,7.07
2018-04-29T04:47:16.955Z,6.73
2018-04-29T04:49:43.299Z,7.03
2018-04-29T04:52:09.698Z,6.63
2018-04-29T04:54:36.178Z,6.07
2018-04-29T04:57:02.567Z,7.13
2018-04-29T04:59:28.974Z,7.47
2018-04-29T05:01:56.078Z,7.13
2018-04-29T05:04:22.485Z,6.30
2018-04-29T05:06:49.014Z,7.10
2018-04-29T05:09:15.419Z,7.67
2018-04-29T05:11:42.503Z,7.67
2018-04-29T05:14:08.888Z,7.53
2018-04-29T05:16:35.250Z,7.30
2018-04-29T05:19:02.354Z,7.87
2018-04-29T05:21:28.742Z,6.33
2018-04-29T05:23:55.102Z,5.97
2018-04-29T05:26:21.514Z,6.60
2018-04-29T05:28:47.943Z,6.87
2018-04-29T05:31:14.309Z,6.37
2018-04-29T05:33:40.649Z,6.17
2018-04-29T05:36:07.282Z,5.63
2018-04-29T05:38:33.629Z,6.37
2018-04-29T05:41:00.096Z,5.57
2018-04-29T05:43:26.427Z,6.63
2018-04-29T05:45:53.703Z,6.70
2018-04-29T05:48:20.069Z,6.27
2018-04-29T05:50:47.174Z,6.63
2018-04-29T05:53:13.542Z,5.63
2018-04-29T05:55:40.139Z,6.67
2018-04-29T05:58:06.551Z,7.03
2018-04-29T06:00:32.912Z,5.60
2018-04-29T06:02:59.253Z,6.17
2018-04-29T06:05:25.656Z,6.20
2018-04-29T06:07:52.731Z,5.70
2018-04-29T06:10:19.912Z,5.63
2018-04-29T06:12:46.459Z,5.90
2018-04-29T06:15:13.024Z,5.60
2018-04-29T06:17:39.341Z,5.23
2018-04-29T06:20:06.405Z,5.07
2018-04-29T06:22:32.749Z,5.57
2018-04-29T06:25:04.501Z,5.17
2018-04-29T06:27:30.849Z,5.70
2018-04-29T06:29:57.202Z,5.33
2018-04-29T06:32:23.546Z,5.20
2018-04-29T06:34:50.374Z,4.57
2018-04-29T06:37:16.740Z,4.23
2018-04-29T06:39:43.106Z,4.83
2018-04-29T06:42:10.231Z,4.30
2018-04-29T06:44:37.583Z,4.13
2018-04-29T06:47:04.661Z,4.40
2018-04-29T06:49:31.042Z,4.13
2018-04-29T06:51:57.393Z,3.87
2018-04-29T06:54:24.690Z,4.50
2018-04-29T06:56:51.041Z,4.07
2018-04-29T06:59:18.137Z,4.30
2018-04-29T07:01:44.485Z,4.57
2018-04-29T07:04:10.976Z,3.90
2018-04-29T07:06:38.083Z,4.20
2018-04-29T07:09:04.517Z,5.10
2018-04-29T07:11:30.873Z,4.40
2018-04-29T07:13:57.250Z,3.90
2018-04-29T07:16:23.590Z,3.50
2018-04-29T07:18:49.931Z,3.83
2018-04-29T07:21:16.450Z,4.17
2018-04-29T07:23:42.886Z,3.73
2018-04-29T07:26:09.225Z,4.07
2018-04-29T07:28:35.602Z,4.17
2018-04-29T07:31:01.965Z,3.73
2018-04-29T07:33:29.052Z,3.90
2018-04-29T07:35:56.182Z,4.00
2018-04-29T07:38:22.584Z,3.80
2018-04-29T07:40:49.705Z,3.83
2018-04-29T07:43:16.138Z,3.77
2018-04-29T07:45:42.847Z,4.03
2018-04-29T07:48:09.253Z,3.97
2018-04-29T07:50:35.671Z,3.80
2018-04-29T07:53:02.789Z,3.40
2018-04-29T07:55:29.342Z,3.47
2018-04-29T07:57:57.194Z,3.70
2018-04-29T08:00:23.551Z,3.43
2018-04-29T08:02:50.709Z,3.40
2018-04-29T08:05:17.849Z,3.43
2018-04-29T08:07:44.950Z,3.80
2018-04-29T08:10:11.294Z,3.67
2018-04-29T08:12:37.658Z,3.60
2018-04-29T08:15:06.746Z,3.50
2018-04-29T08:17:33.283Z,3.37
2018-04-29T08:19:59.689Z,3.57
2018-04-29T08:22:26.082Z,3.60
2018-04-29T08:24:52.638Z,3.43
2018-04-29T08:27:19.111Z,4.27
2018-04-29T08:29:45.509Z,3.40
2018-04-29T08:32:11.869Z,3.53
2018-04-29T08:34:38.445Z,3.77
2018-04-29T08:37:04.854Z,4.00
2018-04-29T08:39:31.217Z,3.63
2018-04-29T08:41:58.283Z,3.93
2018-04-29T08:44:25.661Z,4.10
2018-04-29T08:46:52.787Z,3.83
2018-04-29T08:49:19.203Z,4.63
2018-04-29T08:51:45.554Z,3.73
2018-04-29T08:54:11.962Z,4.57
2018-04-29T08:56:38.315Z,4.00
2018-04-29T08:59:04.697Z,3.97
2018-04-29T09:01:31.102Z,3.93
2018-04-29T09:03:58.928Z,3.80
2018-04-29T09:06:26.038Z,3.47
2018-04-29T09:08:52.446Z,3.50
2018-04-29T09:11:19.134Z,3.57
2018-04-29T09:13:45.585Z,4.50
2018-04-29T09:16:11.957Z,5.20
2018-04-29T09:18:38.304Z,4.63
2018-04-29T09:21:04.666Z,4.20
2018-04-29T09:23:31.773Z,4.00
2018-04-29T09:25:58.113Z,4.35
2018-04-29T09:28:24.552Z,3.62
2018-04-29T09:30:50.950Z,4.10
2018-04-29T09:33:18.108Z,3.97
2018-04-29T09:35:44.469Z,4.00
2018-04-29T09:38:10.802Z,3.80
2018-04-29T09:40:37.922Z,4.20
2018-04-29T09:43:04.302Z,3.97
2018-04-29T09:45:30.692Z,3.90
2018-04-29T09:47:57.065Z,3.53
2018-04-29T09:50:23.448Z,3.83
2018-04-29T09:52:50.585Z,4.50
2018-04-29T09:55:16.929Z,4.78
2018-04-29T09:57:43.340Z,4.22
2018-04-29T10:00:09.742Z,4.10
2018-04-29T10:02:36.245Z,3.90
2018-04-29T10:05:02.690Z,5.30
2018-04-29T10:07:29.017Z,4.03
2018-04-29T10:09:55.389Z,3.90
2018-04-29T10:12:21.731Z,3.58
2018-04-29T10:14:48.381Z,3.92
2018-04-29T10:17:14.731Z,3.67
2018-04-29T10:19:41.101Z,4.20
2018-04-29T10:22:08.182Z,3.90
2018-04-29T10:24:34.689Z,4.03
2018-04-29T10:27:01.094Z,3.70
2018-04-29T10:29:27.429Z,4.00
2018-04-29T10:31:54.509Z,4.12
2018-04-29T10:34:21.778Z,3.62
2018-04-29T10:36:48.163Z,3.80
2018-04-29T10:39:14.536Z,3.58
2018-04-29T10:41:42.288Z,3.75
2018-04-29T10:44:09.053Z,4.05
2018-04-29T10:46:35.409Z,4.53
2018-04-29T10:49:01.750Z,4.45
2018-04-29T10:51:28.113Z,4.35
2018-04-29T10:53:55.254Z,4.00
2018-04-29T10:56:22.398Z,3.80
2018-04-29T10:58:49.511Z,4.43
2018-04-29T11:01:15.896Z,3.75
2018-04-29T11:03:42.256Z,3.72
2018-04-29T11:06:08.610Z,4.22
2018-04-29T11:08:34.941Z,3.90
2018-04-29T11:11:01.305Z,4.25
2018-04-29T11:13:28.506Z,4.68
2018-04-29T11:15:54.841Z,4.25
2018-04-29T11:18:21.201Z,3.87
2018-04-29T11:20:47.574Z,4.07
2018-04-29T11:23:14.710Z,4.10
2018-04-29T11:25:41.809Z,4.80
2018-04-29T11:28:08.143Z,3.90
2018-04-29T11:30:34.501Z,3.50
2018-04-29T11:33:00.842Z,3.90
2018-04-29T11:35:27.954Z,3.87
2018-04-29T11:37:54.388Z,4.62
2018-04-29T11:40:20.893Z,4.37
2018-04-29T11:42:47.261Z,3.80
2018-04-29T11:45:13.609Z,4.87
2018-04-29T11:47:39.933Z,5.30
2018-04-29T11:50:06.290Z,5.15
2018-04-29T11:52:33.365Z,4.85
2018-04-29T11:55:00.165Z,5.30
2018-04-29T11:57:27.293Z,4.82
2018-04-29T11:59:53.674Z,5.00
2018-04-29T12:02:20.078Z,4.43
2018-04-29T12:04:47.251Z,4.63
2018-04-29T12:07:13.630Z,4.50
2018-04-29T12:09:39.965Z,4.20
2018-04-29T12:12:06.289Z,4.60
2018-04-29T12:14:32.758Z,4.73
2018-04-29T12:16:59.826Z,3.83
2018-04-29T12:19:26.922Z,3.87
2018-04-29T12:21:53.279Z,4.13
2018-04-29T12:24:20.626Z,4.37
2018-04-29T12:26:46.990Z,4.60
2018-04-29T12:29:13.354Z,4.47
2018-04-29T12:31:39.695Z,4.60
2018-04-29T12:34:06.299Z,4.57
2018-04-29T12:36:32.641Z,4.70
2018-04-29T12:38:58.999Z,4.50
2018-04-29T12:41:25.414Z,4.97
2018-04-29T12:43:51.910Z,4.83
2018-04-29T12:46:19.022Z,4.87
2018-04-29T12:48:45.353Z,4.67
2018-04-29T12:51:11.702Z,4.47
2018-04-29T12:53:41.394Z,4.37
2018-04-29T12:56:07.885Z,4.15
2018-04-29T12:58:34.234Z,4.05
2018-04-29T13:01:01.333Z,4.30
2018-04-29T13:03:37.227Z,4.55
2018-04-29T13:06:03.829Z,4.22
2018-04-29T13:08:30.922Z,4.65
2018-04-29T13:10:57.337Z,4.15
2018-04-29T13:13:23.657Z,4.90
2018-04-29T13:15:50.469Z,4.50
2018-04-29T13:18:16.841Z,4.00
2018-04-29T13:20:43.179Z,4.35
2018-04-29T13:23:10.285Z,4.70
2018-04-29T13:25:37.674Z,4.60
2018-04-29T13:28:04.011Z,4.72
2018-04-29T13:30:30.353Z,4.37
2018-04-29T13:32:56.674Z,4.55
2018-04-29T13:35:23.320Z,5.28
2018-04-29T13:37:50.535Z,4.72
2018-04-29T13:40:17.670Z,4.12
2018-04-29T13:42:44.784Z,4.73
2018-04-29T13:45:11.178Z,4.33
2018-04-29T13:47:37.538Z,4.97
2018-04-29T13:50:03.876Z,4.60
2018-04-29T13:52:30.289Z,5.13
2018-04-29T13:54:56.585Z,4.20
2018-04-29T13:57:23.653Z,4.90
2018-04-29T13:59:49.977Z,4.70
2018-04-29T14:02:17.204Z,4.50
2018-04-29T14:04:43.522Z,4.53
2018-04-29T14:07:09.931Z,4.60
2018-04-29T14:09:37.034Z,4.77
2018-04-29T14:12:03.374Z,4.30
2018-04-29T14:14:29.670Z,4.53
2018-04-29T14:16:55.999Z,4.57
2018-04-29T14:19:22.423Z,4.60
2018-04-29T14:21:48.757Z,4.17
2018-04-29T14:24:17.242Z,4.33
2018-04-29T14:26:43.613Z,4.63
2018-04-29T14:29:09.953Z,4.07
2018-04-29T14:31:36.396Z,4.63
2018-04-29T14:34:02.753Z,4.43
2018-04-29T14:36:29.102Z,4.50
2018-04-29T14:38:55.433Z,4.13
2018-04-29T14:41:22.522Z,4.03
2018-04-29T14:43:48.918Z,3.63
2018-04-29T14:46:15.262Z,3.83
2018-04-29T14:48:42.333Z,4.30
2018-04-29T14:51:08.679Z,4.27
2018-04-29T14:53:35.860Z,4.57
2018-04-29T14:56:03.761Z,4.10
2018-04-29T14:58:30.854Z,4.63
2018-04-29T15:00:57.242Z,4.10
2018-04-29T15:03:24.413Z,3.87
2018-04-29T15:05:51.281Z,4.07
2018-04-29T15:08:18.363Z,4.30
2018-04-29T15:10:44.709Z,3.93
2018-04-29T15:13:11.793Z,3.90
2018-04-29T15:15:39.102Z,4.10
2018-04-29T15:18:05.534Z,4.30
2018-04-29T15:20:31.877Z,4.40
2018-04-29T15:22:59.023Z,4.33
2018-04-29T15:25:26.243Z,3.90
2018-04-29T15:27:52.581Z,4.40
2018-04-29T15:30:18.968Z,4.00
2018-04-29T15:32:45.362Z,4.17
2018-04-29T15:35:12.653Z,4.37
2018-04-29T15:37:38.988Z,3.83
2018-04-29T15:40:06.093Z,4.20
2018-04-29T15:42:32.781Z,4.50
2018-04-29T15:44:59.402Z,3.90
2018-04-29T15:47:25.802Z,4.17
2018-04-29T15:49:52.574Z,4.23
2018-04-29T15:52:18.881Z,4.27
2018-04-29T15:54:46.153Z,4.57
2018-04-29T15:57:12.482Z,4.30
2018-04-29T15:59:39.115Z,4.50
2018-04-29T16:02:06.247Z,4.47
2018-04-29T16:04:33.509Z,4.97
2018-04-29T16:07:00.020Z,4.40
2018-04-29T16:09:26.354Z,4.50
2018-04-29T16:11:53.191Z,4.37
2018-04-29T16:14:19.518Z,4.57
2018-04-29T16:16:45.866Z,4.13
2018-04-29T16:19:12.225Z,4.40
2018-04-29T16:21:38.562Z,4.80
2018-04-29T16:24:04.922Z,4.40
2018-04-29T16:26:31.289Z,4.83
2018-04-29T16:28:57.680Z,4.30
2018-04-29T16:31:24.141Z,4.40
2018-04-29T16:33:50.546Z,5.07
2018-04-29T16:36:16.908Z,4.40
2018-04-29T16:38:43.225Z,4.60
2018-04-29T16:41:09.590Z,4.90
2018-04-29T16:43:36.709Z,4.57
2018-04-29T16:46:03.112Z,4.30
2018-04-29T16:48:29.625Z,4.63
2018-04-29T16:50:56.071Z,4.40
2018-04-29T16:53:23.217Z,4.40
2018-04-29T16:55:49.834Z,4.47
2018-04-29T16:58:16.929Z,4.73
2018-04-29T17:00:43.274Z,4.57
2018-04-29T17:03:09.629Z,4.17
2018-04-29T17:05:36.946Z,4.43
2018-04-29T17:08:03.281Z,4.67
2018-04-29T17:10:29.606Z,4.03
2018-04-29T17:12:56.010Z,4.10
2018-04-29T17:15:22.809Z,4.53
2018-04-29T17:17:49.155Z,4.47
2018-04-29T17:20:16.266Z,4.00
2018-04-29T17:22:42.605Z,4.27
2018-04-29T17:25:09.183Z,4.27
2018-04-29T17:27:35.549Z,4.30
2018-04-29T17:30:01.905Z,4.10
2018-04-29T17:32:28.234Z,4.37
2018-04-29T17:34:56.375Z,4.10
2018-04-29T17:37:22.733Z,4.20
2018-04-29T17:39:49.100Z,4.37
2018-04-29T17:42:16.212Z,4.23
2018-04-29T17:44:42.708Z,3.93
2018-04-29T17:47:09.079Z,4.30
2018-04-29T17:49:35.858Z,5.63
2018-04-29T17:52:02.939Z,5.80
2018-04-29T17:54:29.501Z,5.73
2018-04-29T17:56:55.954Z,5.40
2018-04-29T17:59:22.337Z,4.50
2018-04-29T18:01:48.714Z,4.30
2018-04-29T18:04:15.073Z,4.70
2018-04-29T18:06:42.150Z,4.80
2018-04-29T18:09:08.530Z,5.30
2018-04-29T18:11:34.874Z,4.97
2018-04-29T18:14:01.941Z,4.47
2018-04-29T18:16:29.091Z,5.07
2018-04-29T18:18:55.442Z,5.07
2018-04-29T18:21:21.817Z,5.50
2018-04-29T18:23:48.181Z,6.70
2018-04-29T18:26:15.302Z,4.93
2018-04-29T18:28:41.679Z,4.47
2018-04-29T18:31:08.030Z,5.30
2018-04-29T18:33:34.354Z,4.63
2018-04-29T18:36:00.702Z,5.37
2018-04-29T18:38:27.202Z,5.00
2018-04-29T18:40:53.707Z,5.33
2018-04-29T18:43:20.786Z,5.30
2018-04-29T18:45:47.177Z,6.23
2018-04-29T18:48:13.508Z,5.00
2018-04-29T18:50:40.006Z,5.33
2018-04-29T18:53:06.241Z,6.00
2018-04-29T18:55:33.476Z,5.47
2018-04-29T18:57:59.837Z,5.50
2018-04-29T19:00:26.989Z,5.10
2018-04-29T19:02:53.738Z,5.10
2018-04-29T19:05:20.239Z,7.60
2018-04-29T19:07:46.592Z,5.67
2018-04-29T19:10:12.974Z,7.83
2018-04-29T19:12:39.333Z,16.23
2018-04-29T19:15:05.765Z,10.43
2018-04-29T19:17:32.725Z,5.57
2018-04-29T19:19:59.862Z,4.43
2018-04-29T19:22:26.310Z,4.33
2018-04-29T19:24:52.838Z,3.77
2018-04-29T19:27:19.230Z,3.80
2018-04-29T19:29:46.319Z,4.40
2018-04-29T19:32:12.698Z,11.77
2018-04-29T19:34:40.037Z,9.27
2018-04-29T19:37:06.410Z,6.40
2018-04-29T19:39:32.752Z,5.37
2018-04-29T19:41:59.852Z,4.77
2018-04-29T19:44:26.406Z,5.70
2018-04-29T19:46:53.645Z,5.20
2018-04-29T19:49:20.091Z,5.03
2018-04-29T19:51:47.242Z,5.30
2018-04-29T19:57:11.991Z,4.53
2018-04-29T19:59:38.265Z,4.70
2018-04-29T20:02:04.702Z,5.03
2018-04-29T20:04:32.113Z,5.10
2018-04-29T20:06:58.492Z,4.53
2018-04-29T20:09:25.799Z,4.37
2018-04-29T20:11:52.655Z,4.73
2018-04-29T20:14:18.989Z,4.50
2018-04-29T20:16:45.385Z,4.40
2018-04-29T20:19:11.790Z,4.10
2018-04-29T20:21:38.929Z,4.07
2018-04-29T20:24:06.076Z,4.70
2018-04-29T20:26:33.232Z,4.83
2018-04-29T20:29:00.314Z,4.50
2018-04-29T20:31:26.670Z,4.40
2018-04-29T20:33:53.037Z,5.70
2018-04-29T20:36:19.456Z,5.37
2018-04-29T20:38:45.793Z,4.70
2018-04-29T20:41:12.919Z,4.50
2018-04-29T20:43:39.290Z,5.13
2018-04-29T20:46:06.367Z,4.70
2018-04-29T20:48:32.758Z,5.47
2018-04-29T20:50:59.134Z,4.60
2018-04-29T20:53:25.586Z,5.00
2018-04-29T20:55:51.989Z,4.00
2018-04-29T20:58:18.334Z,4.10
2018-04-29T21:00:44.728Z,3.90
2018-04-29T21:03:11.871Z,4.40
2018-04-29T21:05:38.205Z,4.27
2018-04-29T21:08:05.352Z,4.63
2018-04-29T21:10:31.706Z,4.30
2018-04-29T21:12:58.138Z,4.33
2018-04-29T21:15:24.782Z,4.03
2018-04-29T21:17:51.161Z,4.20
2018-04-29T21:20:17.521Z,4.50
2018-04-29T21:22:44.663Z,4.63
2018-04-29T21:25:11.171Z,4.17
2018-04-29T21:27:37.602Z,4.30
2018-04-29T21:30:04.231Z,4.53
2018-04-29T21:32:30.588Z,4.40
2018-04-29T21:34:57.382Z,4.70
2018-04-29T21:37:23.801Z,4.17
2018-04-29T21:39:50.397Z,4.77
2018-04-29T21:42:16.809Z,4.33
2018-04-29T21:44:43.662Z,4.80
2018-04-29T21:47:10.135Z,4.37
2018-04-29T21:49:37.245Z,4.47
2018-04-29T21:52:03.638Z,4.00
2018-04-29T21:54:30.130Z,4.67
2018-04-29T21:56:56.652Z,3.80
2018-04-29T21:59:23.010Z,3.90
2018-04-29T22:01:50.141Z,4.00
2018-04-29T22:04:21.874Z,4.13
2018-04-29T22:06:48.229Z,4.33
2018-04-29T22:09:15.239Z,3.77
2018-04-29T22:11:41.599Z,3.87
2018-04-29T22:14:08.350Z,4.17
2018-04-29T22:16:34.792Z,3.80
2018-04-29T22:19:01.867Z,4.37
2018-04-29T22:21:28.602Z,4.10
2018-04-29T22:23:55.020Z,4.00
2018-04-29T22:26:21.666Z,4.27
2018-04-29T22:28:48.794Z,4.10
2018-04-29T22:31:15.131Z,4.00
2018-04-29T22:33:41.503Z,3.40
2018-04-29T22:36:07.898Z,4.27
2018-04-29T22:38:35.026Z,4.17
2018-04-29T22:41:01.370Z,4.40
2018-04-29T22:43:27.966Z,3.80
2018-04-29T22:45:55.278Z,4.40
2018-04-29T22:48:22.729Z,4.33
2018-04-29T22:53:33.525Z,4.00
2018-04-29T22:56:01.352Z,3.73
2018-04-29T22:58:28.718Z,4.13
2018-04-29T23:00:55.322Z,4.13
2018-04-29T23:03:21.726Z,3.87
2018-04-29T23:05:48.273Z,3.83
2018-04-29T23:08:14.625Z,4.03
2018-04-29T23:10:40.994Z,3.90
2018-04-29T23:13:07.838Z,3.57
2018-04-29T23:15:35.375Z,3.60
2018-04-29T23:18:01.813Z,4.30
2018-04-29T23:20:28.285Z,4.10
2018-04-29T23:22:55.393Z,3.53
2018-04-29T23:25:22.167Z,3.70
2018-04-29T23:27:49.277Z,3.70
2018-04-29T23:30:15.662Z,3.70
2018-04-29T23:32:42.016Z,3.07
2018-04-29T23:35:08.526Z,3.23
2018-04-29T23:37:34.853Z,2.37
2018-04-29T23:40:01.189Z,2.00
2018-04-29T23:42:27.589Z,2.40
2018-04-29T23:44:54.018Z,2.30
2018-04-29T23:47:21.106Z,2.30
2018-04-29T23:49:47.477Z,2.20
2018-04-29T23:52:13.852Z,2.37
2018-04-29T23:54:41.104Z,2.20
2018-04-29T23:57:08.193Z,2.10
2018-04-29T23:59:34.592Z,2.23
